N410HA KTMB-KMTH
Flight info
| Callsign | N410HA |
|---|---|
| Flight time | 0h 42m |
| Altitude | 4500 |
| Route | VFR LINEY CADAV KEYS |
| Aircraft | ZZZZ/L-V/C |
Departure
| Time | 2026-05-06 02:44 |
|---|---|
| Airport | Miami Executive Airport (KTMB) |
Arrival
| Time | 2026-05-06 03:26 |
|---|---|
| Airport | Florida Keys Marathon International Airport (KMTH) |
| Time | Latitude | Longitude | Altitude | Speed | Heading |
|---|---|---|---|---|---|
| 2026-05-06 02:36 | 25.65164 | -80.42265 | 8 ft | 0 kts | 283° |
| 2026-05-06 02:37 | 25.65162 | -80.42310 | 8 ft | 10 kts | 265° |
| 2026-05-06 02:37 | 25.65156 | -80.42416 | 8 ft | 14 kts | 268° |
| 2026-05-06 02:37 | 25.65149 | -80.42532 | 8 ft | 15 kts | 266° |
| 2026-05-06 02:38 | 25.65143 | -80.42654 | 8 ft | 15 kts | 266° |
| 2026-05-06 02:38 | 25.65138 | -80.42779 | 8 ft | 16 kts | 268° |
| 2026-05-06 02:38 | 25.65133 | -80.42895 | 8 ft | 14 kts | 268° |
| 2026-05-06 02:38 | 25.65129 | -80.43002 | 8 ft | 13 kts | 269° |
| 2026-05-06 02:39 | 25.65129 | -80.43053 | 8 ft | 0 kts | 275° |
| 2026-05-06 02:39 | 25.65130 | -80.43064 | 8 ft | 0 kts | 275° |
| 2026-05-06 02:39 | 25.65130 | -80.43065 | 8 ft | 0 kts | 275° |
| 2026-05-06 02:41 | 25.65159 | -80.43108 | 8 ft | 11 kts | 324° |
| 2026-05-06 02:41 | 25.65187 | -80.43202 | 8 ft | 15 kts | 268° |
| 2026-05-06 02:41 | 25.65181 | -80.43330 | 8 ft | 17 kts | 266° |
| 2026-05-06 02:41 | 25.65174 | -80.43468 | 8 ft | 17 kts | 267° |
| 2026-05-06 02:42 | 25.65169 | -80.43603 | 8 ft | 17 kts | 268° |
| 2026-05-06 02:42 | 25.65164 | -80.43735 | 8 ft | 17 kts | 269° |
| 2026-05-06 02:42 | 25.65158 | -80.43870 | 8 ft | 17 kts | 266° |
| 2026-05-06 02:42 | 25.65161 | -80.43961 | 8 ft | 7 kts | 297° |
| 2026-05-06 02:43 | 25.65203 | -80.43993 | 8 ft | 7 kts | 353° |
| 2026-05-06 02:43 | 25.65255 | -80.43971 | 8 ft | 9 kts | 58° |
| 2026-05-06 02:43 | 25.65271 | -80.43793 | 8 ft | 49 kts | 85° |
| 2026-05-06 02:43 | 25.65301 | -80.43211 | 18 ft | 94 kts | 85° |
| 2026-05-06 02:44 | 25.65350 | -80.42470 | 225 ft | 99 kts | 85° |
| 2026-05-06 02:44 | 25.65695 | -80.41847 | 495 ft | 97 kts | 36° |
| 2026-05-06 02:44 | 25.66384 | -80.41740 | 722 ft | 108 kts | 343° |
| 2026-05-06 02:44 | 25.66936 | -80.42344 | 986 ft | 110 kts | 307° |
| 2026-05-06 02:45 | 25.67178 | -80.43147 | 1182 ft | 118 kts | 277° |
| 2026-05-06 02:45 | 25.67130 | -80.44062 | 1446 ft | 116 kts | 265° |
| 2026-05-06 02:45 | 25.67082 | -80.44978 | 1675 ft | 120 kts | 271° |
| 2026-05-06 02:45 | 25.66919 | -80.45895 | 1941 ft | 122 kts | 257° |
| 2026-05-06 02:46 | 25.66640 | -80.46774 | 2227 ft | 121 kts | 248° |
| 2026-05-06 02:46 | 25.66191 | -80.47567 | 2500 ft | 121 kts | 230° |
| 2026-05-06 02:46 | 25.65611 | -80.48225 | 2836 ft | 115 kts | 221° |
| 2026-05-06 02:46 | 25.64985 | -80.48827 | 3116 ft | 114 kts | 221° |
| 2026-05-06 02:47 | 25.64336 | -80.49405 | 3405 ft | 113 kts | 218° |
| 2026-05-06 02:47 | 25.63745 | -80.50009 | 3639 ft | 115 kts | 227° |
| 2026-05-06 02:47 | 25.63186 | -80.50621 | 3889 ft | 115 kts | 226° |
| 2026-05-06 02:47 | 25.62611 | -80.51260 | 4146 ft | 115 kts | 225° |
| 2026-05-06 02:48 | 25.62011 | -80.51846 | 4387 ft | 115 kts | 222° |
| 2026-05-06 02:48 | 25.61369 | -80.52486 | 4511 ft | 126 kts | 226° |
| 2026-05-06 02:48 | 25.60789 | -80.53229 | 4609 ft | 129 kts | 240° |
| 2026-05-06 02:48 | 25.60198 | -80.54005 | 4658 ft | 136 kts | 220° |
| 2026-05-06 02:49 | 25.59430 | -80.54700 | 4632 ft | 147 kts | 225° |
| 2026-05-06 02:49 | 25.58655 | -80.55496 | 4574 ft | 160 kts | 226° |
| 2026-05-06 02:49 | 25.57869 | -80.56409 | 4551 ft | 163 kts | 228° |
| 2026-05-06 02:49 | 25.57067 | -80.57301 | 4561 ft | 165 kts | 226° |
| 2026-05-06 02:50 | 25.56221 | -80.58183 | 4481 ft | 170 kts | 225° |
| 2026-05-06 02:50 | 25.55354 | -80.59049 | 4519 ft | 167 kts | 223° |
| 2026-05-06 02:50 | 25.54477 | -80.59930 | 4504 ft | 167 kts | 223° |
| 2026-05-06 02:50 | 25.53581 | -80.60775 | 4465 ft | 170 kts | 221° |
| 2026-05-06 02:51 | 25.52682 | -80.61581 | 4563 ft | 164 kts | 220° |
| 2026-05-06 02:51 | 25.51786 | -80.62424 | 4505 ft | 171 kts | 221° |
| 2026-05-06 02:51 | 25.50903 | -80.63296 | 4577 ft | 166 kts | 221° |
| 2026-05-06 02:51 | 25.50034 | -80.64123 | 4592 ft | 167 kts | 222° |
| 2026-05-06 02:52 | 25.49128 | -80.64971 | 4564 ft | 169 kts | 220° |
| 2026-05-06 02:52 | 25.48199 | -80.65731 | 4632 ft | 166 kts | 216° |
| 2026-05-06 02:52 | 25.47260 | -80.66519 | 4564 ft | 171 kts | 219° |
| 2026-05-06 02:52 | 25.46328 | -80.67329 | 4589 ft | 168 kts | 220° |
| 2026-05-06 02:53 | 25.45462 | -80.68208 | 4571 ft | 169 kts | 227° |
| 2026-05-06 02:53 | 25.44665 | -80.69158 | 4610 ft | 166 kts | 230° |
| 2026-05-06 02:53 | 25.43873 | -80.70081 | 4620 ft | 167 kts | 226° |
| 2026-05-06 02:53 | 25.43050 | -80.71027 | 4603 ft | 168 kts | 229° |
| 2026-05-06 02:54 | 25.42292 | -80.71995 | 4651 ft | 166 kts | 232° |
| 2026-05-06 02:54 | 25.41577 | -80.73030 | 4641 ft | 167 kts | 239° |
| 2026-05-06 02:54 | 25.41079 | -80.74194 | 4607 ft | 169 kts | 249° |
| 2026-05-06 02:54 | 25.40686 | -80.75400 | 4664 ft | 166 kts | 255° |
| 2026-05-06 02:55 | 25.40239 | -80.76595 | 4625 ft | 170 kts | 239° |
| 2026-05-06 02:55 | 25.39396 | -80.77538 | 4559 ft | 172 kts | 225° |
| 2026-05-06 02:55 | 25.38600 | -80.78482 | 4711 ft | 163 kts | 226° |
| 2026-05-06 02:55 | 25.37766 | -80.79357 | 4631 ft | 170 kts | 223° |
| 2026-05-06 02:56 | 25.36848 | -80.80187 | 4687 ft | 166 kts | 220° |
| 2026-05-06 02:56 | 25.35973 | -80.81010 | 4708 ft | 166 kts | 223° |
| 2026-05-06 02:56 | 25.35040 | -80.81805 | 4655 ft | 170 kts | 213° |
| 2026-05-06 02:56 | 25.34010 | -80.82448 | 4723 ft | 165 kts | 209° |
| 2026-05-06 02:57 | 25.32988 | -80.83027 | 4728 ft | 166 kts | 210° |
| 2026-05-06 02:57 | 25.32017 | -80.83730 | 4717 ft | 167 kts | 218° |
| 2026-05-06 02:57 | 25.31066 | -80.84489 | 4758 ft | 165 kts | 214° |
| 2026-05-06 02:57 | 25.30108 | -80.85188 | 4760 ft | 166 kts | 214° |
| 2026-05-06 02:58 | 25.28980 | -80.85500 | 4699 ft | 169 kts | 177° |
| 2026-05-06 02:58 | 25.27862 | -80.85136 | 4739 ft | 163 kts | 149° |
| 2026-05-06 02:58 | 25.27157 | -80.84116 | 4478 ft | 171 kts | 124° |
| 2026-05-06 02:58 | 25.26559 | -80.83156 | 4858 ft | 150 kts | 115° |
| 2026-05-06 02:59 | 25.26206 | -80.81945 | 4512 ft | 173 kts | 108° |
| 2026-05-06 02:59 | 25.25876 | -80.80756 | 4798 ft | 153 kts | 105° |
| 2026-05-06 02:59 | 25.25526 | -80.79606 | 4711 ft | 165 kts | 109° |
| 2026-05-06 02:59 | 25.25198 | -80.78377 | 4692 ft | 165 kts | 108° |
| 2026-05-06 03:00 | 25.24757 | -80.77239 | 4814 ft | 160 kts | 118° |
| 2026-05-06 03:00 | 25.24190 | -80.76157 | 4769 ft | 165 kts | 123° |
| 2026-05-06 03:00 | 25.23521 | -80.75122 | 4836 ft | 162 kts | 125° |
| 2026-05-06 03:00 | 25.22850 | -80.74124 | 4881 ft | 162 kts | 127° |
| 2026-05-06 03:01 | 25.22192 | -80.73082 | 4887 ft | 163 kts | 122° |
| 2026-05-06 03:01 | 25.21562 | -80.72063 | 4937 ft | 162 kts | 127° |
| 2026-05-06 03:01 | 25.20868 | -80.71059 | 4952 ft | 163 kts | 129° |
| 2026-05-06 03:01 | 25.20083 | -80.70121 | 4973 ft | 163 kts | 136° |
| 2026-05-06 03:02 | 25.19214 | -80.69277 | 4979 ft | 165 kts | 133° |
| 2026-05-06 03:02 | 25.18742 | -80.68062 | 4815 ft | 172 kts | 103° |
| 2026-05-06 03:02 | 25.18375 | -80.66823 | 5048 ft | 158 kts | 112° |
| 2026-05-06 03:02 | 25.18024 | -80.65544 | 4885 ft | 171 kts | 108° |
| 2026-05-06 03:03 | 25.17737 | -80.64223 | 4948 ft | 165 kts | 99° |
| 2026-05-06 03:03 | 25.17534 | -80.62901 | 4952 ft | 167 kts | 98° |
| 2026-05-06 03:03 | 25.17322 | -80.61575 | 4873 ft | 171 kts | 106° |
| 2026-05-06 03:03 | 25.16878 | -80.60310 | 4960 ft | 165 kts | 112° |
| 2026-05-06 03:04 | 25.16512 | -80.59054 | 4934 ft | 168 kts | 102° |
| 2026-05-06 03:04 | 25.16380 | -80.57689 | 4904 ft | 168 kts | 97° |
| 2026-05-06 03:04 | 25.16267 | -80.56341 | 4887 ft | 170 kts | 93° |
| 2026-05-06 03:04 | 25.16028 | -80.54951 | 4772 ft | 174 kts | 105° |
| 2026-05-06 03:05 | 25.15621 | -80.53630 | 4808 ft | 170 kts | 115° |
| 2026-05-06 03:05 | 25.14966 | -80.52437 | 4756 ft | 171 kts | 126° |
| 2026-05-06 03:05 | 25.14190 | -80.51371 | 4689 ft | 174 kts | 131° |
| 2026-05-06 03:05 | 25.13263 | -80.50356 | 4618 ft | 175 kts | 144° |
| 2026-05-06 03:06 | 25.12111 | -80.49637 | 4583 ft | 173 kts | 158° |
| 2026-05-06 03:06 | 25.10854 | -80.49143 | 4544 ft | 173 kts | 163° |
| 2026-05-06 03:06 | 25.09636 | -80.48710 | 4535 ft | 171 kts | 161° |
| 2026-05-06 03:06 | 25.08417 | -80.48228 | 4388 ft | 178 kts | 173° |
| 2026-05-06 03:07 | 25.07061 | -80.48441 | 4223 ft | 179 kts | 199° |
| 2026-05-06 03:07 | 25.05920 | -80.49024 | 4281 ft | 172 kts | 208° |
| 2026-05-06 03:07 | 25.04812 | -80.49699 | 4180 ft | 176 kts | 215° |
| 2026-05-06 03:07 | 25.03804 | -80.50489 | 4189 ft | 171 kts | 216° |
| 2026-05-06 03:08 | 25.02830 | -80.51273 | 4168 ft | 172 kts | 217° |
| 2026-05-06 03:08 | 25.01812 | -80.52090 | 4104 ft | 173 kts | 220° |
| 2026-05-06 03:08 | 25.00880 | -80.53006 | 4087 ft | 172 kts | 223° |
| 2026-05-06 03:08 | 24.99964 | -80.53934 | 4043 ft | 173 kts | 226° |
| 2026-05-06 03:09 | 24.99036 | -80.54900 | 3999 ft | 174 kts | 225° |
| 2026-05-06 03:09 | 24.98089 | -80.55827 | 3978 ft | 173 kts | 222° |
| 2026-05-06 03:09 | 24.97182 | -80.56769 | 3930 ft | 172 kts | 225° |
| 2026-05-06 03:09 | 24.96137 | -80.57513 | 3707 ft | 180 kts | 195° |
| 2026-05-06 03:10 | 24.94819 | -80.57600 | 3510 ft | 179 kts | 191° |
| 2026-05-06 03:10 | 24.93863 | -80.58530 | 3133 ft | 190 kts | 245° |
| 2026-05-06 03:10 | 24.93205 | -80.59721 | 3297 ft | 168 kts | 240° |
| 2026-05-06 03:10 | 24.92526 | -80.60870 | 3198 ft | 172 kts | 238° |
| 2026-05-06 03:11 | 24.91849 | -80.62067 | 3062 ft | 173 kts | 239° |
| 2026-05-06 03:11 | 24.91194 | -80.63220 | 3089 ft | 166 kts | 239° |
| 2026-05-06 03:11 | 24.90502 | -80.64355 | 2843 ft | 173 kts | 237° |
| 2026-05-06 03:11 | 24.89806 | -80.65491 | 2735 ft | 170 kts | 237° |
| 2026-05-06 03:12 | 24.89096 | -80.66567 | 2625 ft | 169 kts | 234° |
| 2026-05-06 03:12 | 24.88430 | -80.67718 | 2456 ft | 172 kts | 239° |
| 2026-05-06 03:12 | 24.87741 | -80.68845 | 2386 ft | 168 kts | 236° |
| 2026-05-06 03:12 | 24.87050 | -80.69972 | 2259 ft | 168 kts | 245° |
| 2026-05-06 03:13 | 24.86566 | -80.71205 | 2149 ft | 167 kts | 248° |
| 2026-05-06 03:13 | 24.86051 | -80.72394 | 2069 ft | 165 kts | 248° |
| 2026-05-06 03:13 | 24.85567 | -80.73673 | 1946 ft | 166 kts | 249° |
| 2026-05-06 03:13 | 24.85138 | -80.74950 | 1861 ft | 164 kts | 253° |
| 2026-05-06 03:14 | 24.84639 | -80.76182 | 1755 ft | 165 kts | 245° |
| 2026-05-06 03:14 | 24.84208 | -80.77447 | 1638 ft | 164 kts | 258° |
| 2026-05-06 03:14 | 24.84071 | -80.78706 | 1537 ft | 163 kts | 275° |
| 2026-05-06 03:14 | 24.84154 | -80.79974 | 1310 ft | 172 kts | 256° |
| 2026-05-06 03:15 | 24.83169 | -80.80837 | 1078 ft | 164 kts | 225° |
| 2026-05-06 03:15 | 24.82534 | -80.81801 | 1207 ft | 155 kts | 245° |
| 2026-05-06 03:15 | 24.82056 | -80.82921 | 1233 ft | 149 kts | 247° |
| 2026-05-06 03:15 | 24.81614 | -80.83942 | 1408 ft | 139 kts | 249° |
| 2026-05-06 03:16 | 24.81278 | -80.84976 | 1398 ft | 142 kts | 252° |
| 2026-05-06 03:16 | 24.80847 | -80.85973 | 1444 ft | 141 kts | 247° |
| 2026-05-06 03:16 | 24.80477 | -80.87009 | 1442 ft | 139 kts | 256° |
| 2026-05-06 03:16 | 24.80133 | -80.88048 | 1321 ft | 146 kts | 250° |
| 2026-05-06 03:17 | 24.79701 | -80.89075 | 1358 ft | 138 kts | 249° |
| 2026-05-06 03:17 | 24.79288 | -80.90056 | 1322 ft | 139 kts | 247° |
| 2026-05-06 03:17 | 24.78882 | -80.91068 | 1301 ft | 138 kts | 251° |
| 2026-05-06 03:17 | 24.78563 | -80.92117 | 1263 ft | 138 kts | 256° |
| 2026-05-06 03:18 | 24.78288 | -80.93180 | 1226 ft | 139 kts | 256° |
| 2026-05-06 03:18 | 24.77941 | -80.94214 | 1174 ft | 138 kts | 251° |
| 2026-05-06 03:18 | 24.77574 | -80.95204 | 1206 ft | 136 kts | 250° |
| 2026-05-06 03:18 | 24.77238 | -80.96196 | 1291 ft | 130 kts | 254° |
| 2026-05-06 03:19 | 24.76946 | -80.97173 | 1289 ft | 132 kts | 255° |
| 2026-05-06 03:19 | 24.76677 | -80.98154 | 1347 ft | 129 kts | 259° |
| 2026-05-06 03:19 | 24.76502 | -80.99174 | 1336 ft | 131 kts | 259° |
| 2026-05-06 03:19 | 24.76302 | -81.00167 | 1358 ft | 129 kts | 259° |
| 2026-05-06 03:20 | 24.75860 | -81.02101 | 1338 ft | 123 kts | 257° |
| 2026-05-06 03:20 | 24.75624 | -81.03041 | 1234 ft | 127 kts | 256° |
| 2026-05-06 03:20 | 24.75419 | -81.03989 | 1246 ft | 122 kts | 265° |
| 2026-05-06 03:21 | 24.75322 | -81.04963 | 1190 ft | 122 kts | 268° |
| 2026-05-06 03:21 | 24.75385 | -81.05936 | 1153 ft | 121 kts | 283° |
| 2026-05-06 03:21 | 24.75444 | -81.06881 | 1141 ft | 119 kts | 267° |
| 2026-05-06 03:21 | 24.75048 | -81.07729 | 1003 ft | 131 kts | 223° |
| 2026-05-06 03:22 | 24.74425 | -81.08446 | 1132 ft | 117 kts | 236° |
| 2026-05-06 03:22 | 24.74047 | -81.09354 | 1063 ft | 124 kts | 254° |
| 2026-05-06 03:22 | 24.73903 | -81.10282 | 1147 ft | 119 kts | 271° |
| 2026-05-06 03:22 | 24.73919 | -81.11234 | 1152 ft | 121 kts | 274° |
| 2026-05-06 03:23 | 24.73867 | -81.12162 | 1197 ft | 121 kts | 263° |
| 2026-05-06 03:23 | 24.73585 | -81.13090 | 1211 ft | 123 kts | 239° |
| 2026-05-06 03:23 | 24.72923 | -81.13731 | 1221 ft | 125 kts | 204° |
| 2026-05-06 03:23 | 24.72051 | -81.13988 | 1272 ft | 123 kts | 178° |
| 2026-05-06 03:24 | 24.71226 | -81.13520 | 1151 ft | 132 kts | 127° |
| 2026-05-06 03:24 | 24.71009 | -81.12543 | 1150 ft | 128 kts | 86° |
| 2026-05-06 03:24 | 24.71048 | -81.11577 | 1184 ft | 114 kts | 84° |
| 2026-05-06 03:24 | 24.71090 | -81.10687 | 1209 ft | 106 kts | 84° |
| 2026-05-06 03:25 | 24.71150 | -81.09827 | 1114 ft | 108 kts | 85° |
| 2026-05-06 03:25 | 24.71264 | -81.08974 | 923 ft | 105 kts | 78° |
| 2026-05-06 03:25 | 24.71467 | -81.08167 | 681 ft | 105 kts | 72° |
| 2026-05-06 03:25 | 24.71761 | -81.07403 | 443 ft | 106 kts | 68° |
| 2026-05-06 03:26 | 24.72051 | -81.06633 | 240 ft | 102 kts | 68° |
| 2026-05-06 03:26 | 24.72324 | -81.05913 | 63 ft | 92 kts | 69° |
| 2026-05-06 03:26 | 24.72555 | -81.05309 | 8 ft | 73 kts | 68° |
| 2026-05-06 03:26 | 24.72667 | -81.05004 | 7 ft | 6 kts | 84° |
| 2026-05-06 03:27 | 24.72651 | -81.04908 | 7 ft | 14 kts | 79° |
| 2026-05-06 03:27 | 24.72693 | -81.04768 | 8 ft | 13 kts | 112° |
| 2026-05-06 03:27 | 24.72684 | -81.04649 | 8 ft | 13 kts | 13° |
| 2026-05-06 03:27 | 24.72693 | -81.04652 | 8 ft | 8 kts | 274° |
| 2026-05-06 03:28 | 24.72685 | -81.04654 | 7 ft | 0 kts | 128° |